createdAt,value
2018-04-30T00:00:56.052Z,959.88
2018-04-30T00:01:56.043Z,959.88
2018-04-30T00:02:56.034Z,959.83
2018-04-30T00:03:56.026Z,959.76
2018-04-30T00:04:56.017Z,959.87
2018-04-30T00:05:56.011Z,959.79
2018-04-30T00:06:56.007Z,959.83
2018-04-30T00:07:55.994Z,959.99
2018-04-30T00:08:55.988Z,960.11
2018-04-30T00:09:55.979Z,960.13
2018-04-30T00:10:55.971Z,960.14
2018-04-30T00:11:55.963Z,960.23
2018-04-30T00:12:55.956Z,960.19
2018-04-30T00:13:55.947Z,960.26
2018-04-30T00:14:55.940Z,960.24
2018-04-30T00:15:55.932Z,960.21
2018-04-30T00:16:55.926Z,960.14
2018-04-30T00:17:55.914Z,960.13
2018-04-30T00:18:55.908Z,960.15
2018-04-30T00:19:55.899Z,960.03
2018-04-30T00:20:55.892Z,960.05
2018-04-30T00:21:55.884Z,960.06
2018-04-30T00:22:55.875Z,960.08
2018-04-30T00:23:55.866Z,960.16
2018-04-30T00:24:55.858Z,960.19
2018-04-30T00:25:55.851Z,960.20
2018-04-30T00:26:55.846Z,960.25
2018-04-30T00:27:55.836Z,960.39
2018-04-30T00:28:55.831Z,960.42
2018-04-30T00:29:55.821Z,960.43
2018-04-30T00:30:55.811Z,960.45
2018-04-30T00:31:55.804Z,960.51
2018-04-30T00:32:55.794Z,960.58
2018-04-30T00:33:55.789Z,960.49
2018-04-30T00:34:55.779Z,960.47
2018-04-30T00:35:55.773Z,960.52
2018-04-30T00:36:55.764Z,960.41
2018-04-30T00:37:55.755Z,960.51
2018-04-30T00:38:55.746Z,960.50
2018-04-30T00:39:55.740Z,960.53
2018-04-30T00:40:55.733Z,960.47
2018-04-30T00:41:55.721Z,960.51
2018-04-30T00:42:55.713Z,960.47
2018-04-30T00:43:55.704Z,960.56
2018-04-30T00:44:55.696Z,960.61
2018-04-30T00:45:55.687Z,960.68
2018-04-30T00:46:55.681Z,960.64
2018-04-30T00:47:55.676Z,960.61
2018-04-30T00:48:55.667Z,960.60
2018-04-30T00:49:55.657Z,960.56
2018-04-30T00:50:55.655Z,960.52
2018-04-30T00:51:55.640Z,960.50
2018-04-30T00:52:55.633Z,960.47
2018-04-30T00:53:55.622Z,960.43
2018-04-30T00:54:55.618Z,960.46
2018-04-30T00:55:55.608Z,960.47
2018-04-30T00:56:55.601Z,960.52
2018-04-30T00:57:55.589Z,960.52
2018-04-30T00:58:55.584Z,960.64
2018-04-30T00:59:55.575Z,960.67
2018-04-30T01:00:55.568Z,960.78
2018-04-30T01:01:55.557Z,960.75
2018-04-30T01:02:55.546Z,960.81
2018-04-30T01:03:55.539Z,960.87
2018-04-30T01:04:55.532Z,960.91
2018-04-30T01:05:55.523Z,960.91
2018-04-30T01:06:55.512Z,960.97
2018-04-30T01:07:55.507Z,961.00
2018-04-30T01:08:55.499Z,961.02
2018-04-30T01:09:55.495Z,961.00
2018-04-30T01:10:55.484Z,961.00
2018-04-30T01:11:55.475Z,961.02
2018-04-30T01:12:55.466Z,960.98
2018-04-30T01:13:55.466Z,961.05
2018-04-30T01:14:55.447Z,961.02
2018-04-30T01:15:55.443Z,961.11
2018-04-30T01:16:55.432Z,961.12
2018-04-30T01:17:55.424Z,961.21
2018-04-30T01:18:55.416Z,961.18
2018-04-30T01:19:55.409Z,961.24
2018-04-30T01:20:55.399Z,961.20
2018-04-30T01:21:55.389Z,961.27
2018-04-30T01:22:55.388Z,961.27
2018-04-30T01:23:55.374Z,961.35
2018-04-30T01:24:55.365Z,961.36
2018-04-30T01:25:55.357Z,961.42
2018-04-30T01:26:55.347Z,961.44
2018-04-30T01:27:55.341Z,961.50
2018-04-30T01:28:55.334Z,961.54
2018-04-30T01:29:55.324Z,961.51
2018-04-30T01:30:55.319Z,961.55
2018-04-30T01:31:55.306Z,961.55
2018-04-30T01:32:55.298Z,961.61
2018-04-30T01:33:55.292Z,961.53
2018-04-30T01:34:55.281Z,961.53
2018-04-30T01:35:55.271Z,961.51
2018-04-30T01:36:55.266Z,961.60
2018-04-30T01:37:55.256Z,961.58
2018-04-30T01:38:55.247Z,961.58
2018-04-30T01:39:55.237Z,961.60
2018-04-30T01:40:55.230Z,961.56
2018-04-30T01:41:55.224Z,961.61
2018-04-30T01:42:55.215Z,961.66
2018-04-30T01:43:55.203Z,961.62
2018-04-30T01:44:55.197Z,961.67
2018-04-30T01:45:55.190Z,961.65
2018-04-30T01:46:55.175Z,961.65
2018-04-30T01:47:55.171Z,961.66
2018-04-30T01:48:55.160Z,961.67
2018-04-30T01:49:55.150Z,961.62
2018-04-30T01:50:55.144Z,961.62
2018-04-30T01:51:55.135Z,961.72
2018-04-30T01:52:55.129Z,961.79
2018-04-30T01:53:55.117Z,961.81
2018-04-30T01:54:55.108Z,961.76
2018-04-30T01:55:55.099Z,961.74
2018-04-30T01:56:55.089Z,961.80
2018-04-30T01:57:55.079Z,961.85
2018-04-30T01:58:55.074Z,961.84
2018-04-30T01:59:55.066Z,961.81
2018-04-30T02:00:55.055Z,961.75
2018-04-30T02:01:55.046Z,961.87
2018-04-30T02:02:55.035Z,961.91
2018-04-30T02:03:55.025Z,962.02
2018-04-30T02:04:55.018Z,962.08
2018-04-30T02:05:55.009Z,962.07
2018-04-30T02:06:55.000Z,962.07
2018-04-30T02:07:54.988Z,962.14
2018-04-30T02:08:54.983Z,962.22
2018-04-30T02:09:54.971Z,962.37
2018-04-30T02:10:54.967Z,962.38
2018-04-30T02:11:54.953Z,962.37
2018-04-30T02:12:54.946Z,962.27
2018-04-30T02:13:54.936Z,962.30
2018-04-30T02:14:54.929Z,962.37
2018-04-30T02:15:54.916Z,962.47
2018-04-30T02:16:54.908Z,962.47
2018-04-30T02:17:54.900Z,962.41
2018-04-30T02:18:54.892Z,962.32
2018-04-30T02:19:54.882Z,962.29
2018-04-30T02:20:54.876Z,962.32
2018-04-30T02:21:54.862Z,962.32
2018-04-30T02:22:54.854Z,962.23
2018-04-30T02:23:54.847Z,962.13
2018-04-30T02:24:54.842Z,962.07
2018-04-30T02:25:54.830Z,962.15
2018-04-30T02:26:54.815Z,962.13
2018-04-30T02:27:54.806Z,962.05
2018-04-30T02:28:54.798Z,962.00
2018-04-30T02:29:54.789Z,961.90
2018-04-30T02:30:54.778Z,961.85
2018-04-30T02:31:54.771Z,961.91
2018-04-30T02:32:54.762Z,961.91
2018-04-30T02:33:54.752Z,961.98
2018-04-30T02:34:54.743Z,962.06
2018-04-30T02:35:54.734Z,962.05
2018-04-30T02:36:54.723Z,962.09
2018-04-30T02:37:54.717Z,962.11
2018-04-30T02:38:54.762Z,962.17
2018-04-30T02:39:54.695Z,962.20
2018-04-30T02:40:54.685Z,962.15
2018-04-30T02:41:54.679Z,962.10
2018-04-30T02:42:54.669Z,962.13
2018-04-30T02:43:54.660Z,962.22
2018-04-30T02:44:54.651Z,962.20
2018-04-30T02:45:54.639Z,962.21
2018-04-30T02:46:54.631Z,962.26
2018-04-30T02:47:54.623Z,962.32
2018-04-30T02:48:54.618Z,962.30
2018-04-30T02:49:54.603Z,962.34
2018-04-30T02:50:54.598Z,962.36
2018-04-30T02:51:54.588Z,962.35
2018-04-30T02:52:54.576Z,962.31
2018-04-30T02:53:54.569Z,962.30
2018-04-30T02:54:54.554Z,962.39
2018-04-30T02:55:54.546Z,962.38
2018-04-30T02:56:54.536Z,962.36
2018-04-30T02:57:54.527Z,962.29
2018-04-30T02:58:54.515Z,962.38
2018-04-30T02:59:54.509Z,962.31
2018-04-30T03:00:54.498Z,962.36
2018-04-30T03:01:54.489Z,962.38
2018-04-30T03:02:54.482Z,962.48
2018-04-30T03:03:54.473Z,962.52
2018-04-30T03:04:54.460Z,962.55
2018-04-30T03:05:54.449Z,962.53
2018-04-30T03:06:54.439Z,962.54
2018-04-30T03:07:54.435Z,962.51
2018-04-30T03:08:54.423Z,962.47
2018-04-30T03:09:54.412Z,962.46
2018-04-30T03:10:54.401Z,962.48
2018-04-30T03:11:54.390Z,962.51
2018-04-30T03:12:54.382Z,962.54
2018-04-30T03:13:54.372Z,962.52
2018-04-30T03:14:54.365Z,962.55
2018-04-30T03:15:54.352Z,962.54
2018-04-30T03:16:54.342Z,962.49
2018-04-30T03:17:54.336Z,962.49
2018-04-30T03:18:54.323Z,962.47
2018-04-30T03:19:54.312Z,962.51
2018-04-30T03:20:54.306Z,962.51
2018-04-30T03:21:54.295Z,962.50
2018-04-30T03:22:54.282Z,962.49
2018-04-30T03:23:54.273Z,962.47
2018-04-30T03:24:54.271Z,962.42
2018-04-30T03:25:54.257Z,962.42
2018-04-30T03:26:54.247Z,962.44
2018-04-30T03:27:54.238Z,962.39
2018-04-30T03:28:54.229Z,962.44
2018-04-30T03:29:54.219Z,962.46
2018-04-30T03:30:54.206Z,962.46
2018-04-30T03:31:54.195Z,962.48
2018-04-30T03:32:54.190Z,962.50
2018-04-30T03:33:54.180Z,962.52
2018-04-30T03:34:54.173Z,962.49
2018-04-30T03:35:54.157Z,962.54
2018-04-30T03:36:54.150Z,962.52
2018-04-30T03:37:54.141Z,962.53
2018-04-30T03:38:54.128Z,962.53
2018-04-30T03:39:54.119Z,962.51
2018-04-30T03:40:54.112Z,962.57
2018-04-30T03:41:54.102Z,962.49
2018-04-30T03:42:54.090Z,962.52
2018-04-30T03:43:54.082Z,962.51
2018-04-30T03:44:54.084Z,962.51
2018-04-30T03:45:54.060Z,962.53
2018-04-30T03:46:54.050Z,962.47
2018-04-30T03:47:54.044Z,962.48
2018-04-30T03:48:54.036Z,962.56
2018-04-30T03:49:54.023Z,962.54
2018-04-30T03:50:54.011Z,962.56
2018-04-30T03:51:54.001Z,962.54
2018-04-30T03:52:53.992Z,962.58
2018-04-30T03:53:53.983Z,962.60
2018-04-30T03:54:53.971Z,962.59
2018-04-30T03:55:53.962Z,962.59
2018-04-30T03:56:53.956Z,962.56
2018-04-30T03:57:53.943Z,962.59
2018-04-30T03:58:53.933Z,962.59
2018-04-30T03:59:53.924Z,962.58
2018-04-30T04:00:53.915Z,962.62
2018-04-30T04:01:53.907Z,962.65
2018-04-30T04:02:53.894Z,962.62
2018-04-30T04:03:53.886Z,962.56
2018-04-30T04:04:53.876Z,962.56
2018-04-30T04:05:53.864Z,962.63
2018-04-30T04:06:53.854Z,962.62
2018-04-30T04:07:53.849Z,962.57
2018-04-30T04:08:53.838Z,962.50
2018-04-30T04:09:53.824Z,962.55
2018-04-30T04:10:53.816Z,962.55
2018-04-30T04:11:53.803Z,962.63
2018-04-30T04:12:53.795Z,962.64
2018-04-30T04:13:53.786Z,962.68
2018-04-30T04:14:53.777Z,962.70
2018-04-30T04:15:53.766Z,962.60
2018-04-30T04:16:53.761Z,962.52
2018-04-30T04:17:53.747Z,962.54
2018-04-30T04:18:53.734Z,962.55
2018-04-30T04:19:53.727Z,962.57
2018-04-30T04:20:53.714Z,962.49
2018-04-30T04:21:53.710Z,962.41
2018-04-30T04:22:53.700Z,962.36
2018-04-30T04:23:53.690Z,962.28
2018-04-30T04:24:53.679Z,962.30
2018-04-30T04:25:53.669Z,962.33
2018-04-30T04:26:53.655Z,962.35
2018-04-30T04:27:53.647Z,962.38
2018-04-30T04:28:53.640Z,962.42
2018-04-30T04:29:53.629Z,962.44
2018-04-30T04:30:53.618Z,962.49
2018-04-30T04:31:53.607Z,962.59
2018-04-30T04:32:53.597Z,962.63
2018-04-30T04:33:53.590Z,962.66
2018-04-30T04:34:53.578Z,962.65
2018-04-30T04:35:53.569Z,962.68
2018-04-30T04:36:53.559Z,962.63
2018-04-30T04:37:53.548Z,962.67
2018-04-30T04:38:53.542Z,962.64
2018-04-30T04:39:53.529Z,962.67
2018-04-30T04:40:53.520Z,962.70
2018-04-30T04:41:53.508Z,962.73
2018-04-30T04:42:53.504Z,962.73
2018-04-30T04:43:53.561Z,962.80
2018-04-30T04:44:53.483Z,962.84
2018-04-30T04:45:53.469Z,962.83
2018-04-30T04:46:53.460Z,962.84
2018-04-30T04:47:53.450Z,962.89
2018-04-30T04:48:53.441Z,962.97
2018-04-30T04:49:53.431Z,963.01
2018-04-30T04:50:53.423Z,963.00
2018-04-30T04:51:53.415Z,962.94
2018-04-30T04:52:53.401Z,962.98
2018-04-30T04:53:53.393Z,963.00
2018-04-30T04:54:53.381Z,962.96
2018-04-30T04:55:53.372Z,962.97
2018-04-30T04:56:53.366Z,962.97
2018-04-30T04:57:53.352Z,962.93
2018-04-30T04:58:53.345Z,963.02
2018-04-30T04:59:53.332Z,962.98
2018-04-30T05:00:53.328Z,963.01
2018-04-30T05:01:53.312Z,963.02
2018-04-30T05:02:53.306Z,963.06
2018-04-30T05:03:53.294Z,963.04
2018-04-30T05:04:53.284Z,963.08
2018-04-30T05:05:53.271Z,963.05
2018-04-30T05:06:53.263Z,963.09
2018-04-30T05:07:53.255Z,963.00
2018-04-30T05:08:53.246Z,962.89
2018-04-30T05:09:53.234Z,962.85
2018-04-30T05:10:53.294Z,962.90
2018-04-30T05:11:53.218Z,963.02
2018-04-30T05:12:53.209Z,963.12
2018-04-30T05:13:53.197Z,963.06
2018-04-30T05:14:53.194Z,962.99
2018-04-30T05:15:53.175Z,962.99
2018-04-30T05:16:53.173Z,962.99
2018-04-30T05:17:53.161Z,963.00
2018-04-30T05:18:53.150Z,963.01
2018-04-30T05:19:53.139Z,963.00
2018-04-30T05:20:53.192Z,962.98
2018-04-30T05:21:53.117Z,962.96
2018-04-30T05:22:53.110Z,963.04
2018-04-30T05:23:53.101Z,963.05
2018-04-30T05:24:53.089Z,963.01
2018-04-30T05:25:53.082Z,963.06
2018-04-30T05:26:53.068Z,963.08
2018-04-30T05:27:53.062Z,963.06
2018-04-30T05:28:53.057Z,963.06
2018-04-30T05:29:53.041Z,963.04
2018-04-30T05:30:53.030Z,963.11
2018-04-30T05:31:53.021Z,963.13
2018-04-30T05:32:53.016Z,963.15
2018-04-30T05:33:53.050Z,963.09
2018-04-30T05:34:52.992Z,963.16
2018-04-30T05:35:52.984Z,963.22
2018-04-30T05:36:52.976Z,963.21
2018-04-30T05:37:52.967Z,963.12
2018-04-30T05:38:52.966Z,963.11
2018-04-30T05:39:52.942Z,963.11
2018-04-30T05:40:52.938Z,963.03
2018-04-30T05:41:52.927Z,963.05
2018-04-30T05:42:52.915Z,963.04
2018-04-30T05:43:52.908Z,963.02
2018-04-30T05:44:52.899Z,962.99
2018-04-30T05:45:52.887Z,962.96
2018-04-30T05:46:52.884Z,962.97
2018-04-30T05:47:52.867Z,962.96
2018-04-30T05:48:52.860Z,963.00
2018-04-30T05:49:52.852Z,962.98
2018-04-30T05:50:52.841Z,963.02
2018-04-30T05:51:52.835Z,963.04
2018-04-30T05:52:52.826Z,963.01
2018-04-30T05:53:52.810Z,963.03
2018-04-30T05:54:52.801Z,963.05
2018-04-30T05:55:52.792Z,963.04
2018-04-30T05:56:52.783Z,963.09
2018-04-30T05:57:52.774Z,962.97
2018-04-30T05:58:52.764Z,962.98
2018-04-30T05:59:52.760Z,962.98
2018-04-30T06:00:52.746Z,962.99
2018-04-30T06:01:52.736Z,963.00
2018-04-30T06:02:52.725Z,962.96
2018-04-30T06:03:52.722Z,963.01
2018-04-30T06:04:52.711Z,963.02
2018-04-30T06:05:52.699Z,963.03
2018-04-30T06:06:52.710Z,962.98
2018-04-30T06:07:52.753Z,963.01
2018-04-30T06:08:52.681Z,963.00
2018-04-30T06:09:52.667Z,962.98
2018-04-30T06:10:52.654Z,962.93
2018-04-30T06:11:52.646Z,962.96
2018-04-30T06:12:52.636Z,962.95
2018-04-30T06:13:52.634Z,962.97
2018-04-30T06:14:52.621Z,962.93
2018-04-30T06:15:52.610Z,962.92
2018-04-30T06:16:52.600Z,962.92
2018-04-30T06:17:52.595Z,962.96
2018-04-30T06:18:52.583Z,962.91
2018-04-30T06:19:52.575Z,962.92
2018-04-30T06:20:52.567Z,962.89
2018-04-30T06:21:52.559Z,962.91
2018-04-30T06:22:52.549Z,962.94
2018-04-30T06:23:52.543Z,962.90
2018-04-30T06:24:52.534Z,962.91
2018-04-30T06:25:52.526Z,962.93
2018-04-30T06:26:52.638Z,962.92
2018-04-30T06:27:52.507Z,962.94
2018-04-30T06:28:52.499Z,962.96
2018-04-30T06:29:52.491Z,962.93
2018-04-30T06:30:52.483Z,962.92
2018-04-30T06:31:52.475Z,962.95
2018-04-30T06:32:52.467Z,962.93
2018-04-30T06:33:52.457Z,962.98
2018-04-30T06:34:52.449Z,962.98
2018-04-30T06:35:52.519Z,963.01
2018-04-30T06:36:52.435Z,963.00
2018-04-30T06:37:52.424Z,962.97
2018-04-30T06:38:52.419Z,962.94
2018-04-30T06:39:52.469Z,962.96
2018-04-30T06:40:52.402Z,963.01
2018-04-30T06:41:52.392Z,962.98
2018-04-30T06:42:52.391Z,962.99
2018-04-30T06:43:52.379Z,962.99
2018-04-30T06:44:52.368Z,962.95
2018-04-30T06:45:52.363Z,962.89
2018-04-30T06:46:52.355Z,962.97
2018-04-30T06:47:52.343Z,962.98
2018-04-30T06:48:52.337Z,962.97
2018-04-30T06:49:52.327Z,962.97
2018-04-30T06:50:52.320Z,962.97
2018-04-30T06:51:52.315Z,963.01
2018-04-30T06:52:52.304Z,962.99
2018-04-30T06:53:52.305Z,962.97
2018-04-30T06:54:52.293Z,962.95
2018-04-30T06:55:52.282Z,962.94
2018-04-30T06:56:52.275Z,962.98
2018-04-30T06:57:52.268Z,962.93
2018-04-30T06:58:52.261Z,962.96
2018-04-30T06:59:52.258Z,962.95
2018-04-30T07:00:52.247Z,962.95
2018-04-30T07:01:52.239Z,962.93
2018-04-30T07:02:52.230Z,962.95
2018-04-30T07:03:52.223Z,962.98
2018-04-30T07:04:52.217Z,962.92
2018-04-30T07:05:52.210Z,962.90
2018-04-30T07:06:52.205Z,962.94
2018-04-30T07:07:52.203Z,962.91
2018-04-30T07:08:52.189Z,962.82
2018-04-30T07:09:52.185Z,962.90
2018-04-30T07:10:52.180Z,962.91
2018-04-30T07:11:52.171Z,962.94
2018-04-30T07:12:52.162Z,962.88
2018-04-30T07:13:52.156Z,962.94
2018-04-30T07:14:52.147Z,962.94
2018-04-30T07:15:52.146Z,962.97
2018-04-30T07:16:52.137Z,962.91
2018-04-30T07:17:52.134Z,962.95
2018-04-30T07:18:52.120Z,962.94
2018-04-30T07:19:52.122Z,962.93
2018-04-30T07:20:52.108Z,963.00
2018-04-30T07:21:52.102Z,962.93
2018-04-30T07:22:52.095Z,962.93
2018-04-30T07:23:52.093Z,962.93
2018-04-30T07:24:52.083Z,962.90
2018-04-30T07:25:52.085Z,962.91
2018-04-30T07:26:52.076Z,962.87
2018-04-30T07:27:52.144Z,962.94
2018-04-30T07:28:52.067Z,962.92
2018-04-30T07:29:52.051Z,962.97
2018-04-30T07:30:52.043Z,962.95
2018-04-30T07:31:52.039Z,963.02
2018-04-30T07:32:52.035Z,963.00
2018-04-30T07:33:52.025Z,963.00
2018-04-30T07:34:52.020Z,963.06
2018-04-30T07:35:52.015Z,962.98
2018-04-30T07:36:52.010Z,963.05
2018-04-30T07:37:52.004Z,963.10
2018-04-30T07:38:51.997Z,963.12
2018-04-30T07:39:51.991Z,963.10
2018-04-30T07:40:51.985Z,963.03
2018-04-30T07:41:51.980Z,963.01
2018-04-30T07:42:51.973Z,962.98
2018-04-30T07:43:51.965Z,962.98
2018-04-30T07:44:51.965Z,962.99
2018-04-30T07:45:51.956Z,963.03
2018-04-30T07:46:51.955Z,963.02
2018-04-30T07:47:51.943Z,962.97
2018-04-30T07:48:51.940Z,962.98
2018-04-30T07:49:51.936Z,962.98
2018-04-30T07:50:51.929Z,963.05
2018-04-30T07:51:51.921Z,963.02
2018-04-30T07:52:51.919Z,962.94
2018-04-30T07:53:51.912Z,962.99
2018-04-30T07:54:51.908Z,962.99
2018-04-30T07:55:51.899Z,962.95
2018-04-30T07:56:51.895Z,962.96
2018-04-30T07:57:51.891Z,962.94
2018-04-30T07:58:51.884Z,962.91
2018-04-30T07:59:51.878Z,962.87
2018-04-30T08:00:51.876Z,962.89
2018-04-30T08:01:51.869Z,962.90
2018-04-30T08:02:51.865Z,962.89
2018-04-30T08:03:51.858Z,962.94
2018-04-30T08:04:51.855Z,962.93
2018-04-30T08:05:51.847Z,962.85
2018-04-30T08:06:51.845Z,962.86
2018-04-30T08:07:51.837Z,962.88
2018-04-30T08:08:51.831Z,962.86
2018-04-30T08:09:51.831Z,962.90
2018-04-30T08:10:51.823Z,962.82
2018-04-30T08:11:51.816Z,962.94
2018-04-30T08:12:51.813Z,962.93
2018-04-30T08:13:51.814Z,962.95
2018-04-30T08:14:51.813Z,962.90
2018-04-30T08:15:51.797Z,962.97
2018-04-30T08:16:51.792Z,963.03
2018-04-30T08:17:51.785Z,963.01
2018-04-30T08:18:51.782Z,963.01
2018-04-30T08:19:51.778Z,962.98
2018-04-30T08:20:51.777Z,962.98
2018-04-30T08:21:51.768Z,963.03
2018-04-30T08:22:51.764Z,963.05
2018-04-30T08:23:51.758Z,963.02
2018-04-30T08:24:51.753Z,963.01
2018-04-30T08:25:51.747Z,963.04
2018-04-30T08:26:51.753Z,963.09
2018-04-30T08:27:51.739Z,963.09
2018-04-30T08:28:51.730Z,963.12
2018-04-30T08:29:51.725Z,963.11
2018-04-30T08:30:51.729Z,963.13
2018-04-30T08:31:51.716Z,963.11
2018-04-30T08:32:51.720Z,963.16
2018-04-30T08:33:51.710Z,963.14
2018-04-30T08:34:51.699Z,963.13
2018-04-30T08:35:51.699Z,963.13
2018-04-30T08:36:51.693Z,963.17
2018-04-30T08:37:51.689Z,963.16
2018-04-30T08:38:51.685Z,963.16
2018-04-30T08:39:51.679Z,963.17
2018-04-30T08:40:51.678Z,963.17
2018-04-30T08:41:51.676Z,963.16
2018-04-30T08:42:51.665Z,963.26
2018-04-30T08:43:51.662Z,963.23
2018-04-30T08:44:51.659Z,963.31
2018-04-30T08:45:51.657Z,963.31
2018-04-30T08:46:51.648Z,963.30
2018-04-30T08:47:51.647Z,963.37
2018-04-30T08:48:51.640Z,963.29
2018-04-30T08:49:51.640Z,963.35
2018-04-30T08:50:51.634Z,963.30
2018-04-30T08:51:51.628Z,963.35
2018-04-30T08:52:51.622Z,963.34
2018-04-30T08:53:51.621Z,963.39
2018-04-30T08:54:51.615Z,963.43
2018-04-30T08:55:51.614Z,963.37
2018-04-30T08:56:51.608Z,963.38
2018-04-30T08:57:51.603Z,963.40
2018-04-30T08:58:51.601Z,963.42
2018-04-30T08:59:51.593Z,963.45
2018-04-30T09:00:51.593Z,963.48
2018-04-30T09:01:51.588Z,963.44
2018-04-30T09:02:51.589Z,963.53
2018-04-30T09:03:51.581Z,963.53
2018-04-30T09:04:51.583Z,963.58
2018-04-30T09:05:51.574Z,963.57
2018-04-30T09:06:51.572Z,963.56
2018-04-30T09:07:51.567Z,963.52
2018-04-30T09:08:51.563Z,963.58
2018-04-30T09:09:51.562Z,963.56
2018-04-30T09:10:51.553Z,963.57
2018-04-30T09:11:51.550Z,963.54
2018-04-30T09:12:51.547Z,963.57
2018-04-30T09:13:51.544Z,963.55
2018-04-30T09:14:51.548Z,963.50
2018-04-30T09:15:51.533Z,963.57
2018-04-30T09:16:51.527Z,963.52
2018-04-30T09:17:51.525Z,963.48
2018-04-30T09:18:51.521Z,963.54
2018-04-30T09:19:51.516Z,963.54
2018-04-30T09:20:51.511Z,963.48
2018-04-30T09:21:51.511Z,963.47
2018-04-30T09:22:51.505Z,963.50
2018-04-30T09:23:51.537Z,963.54
2018-04-30T09:24:51.499Z,963.53
2018-04-30T09:25:51.495Z,963.54
2018-04-30T09:26:51.493Z,963.52
2018-04-30T09:27:51.484Z,963.52
2018-04-30T09:28:51.483Z,963.59
2018-04-30T09:29:51.479Z,963.51
2018-04-30T09:30:51.474Z,963.55
2018-04-30T09:31:51.469Z,963.44
2018-04-30T09:32:51.469Z,963.54
2018-04-30T09:33:51.464Z,963.56
2018-04-30T09:34:51.458Z,963.67
2018-04-30T09:35:51.456Z,963.53
2018-04-30T09:36:51.452Z,963.61
2018-04-30T09:37:51.445Z,963.58
2018-04-30T09:38:51.446Z,963.51
2018-04-30T09:39:51.445Z,963.54
2018-04-30T09:40:51.434Z,963.54
2018-04-30T09:41:51.429Z,963.55
2018-04-30T09:42:51.427Z,963.56
2018-04-30T09:43:51.421Z,963.51
2018-04-30T09:44:51.418Z,963.52
2018-04-30T09:45:51.413Z,963.49
2018-04-30T09:46:51.408Z,963.49
2018-04-30T09:47:51.411Z,963.49
2018-04-30T09:48:51.401Z,963.49
2018-04-30T09:49:51.397Z,963.49
2018-04-30T09:50:51.391Z,963.38
2018-04-30T09:51:51.391Z,963.42
2018-04-30T09:52:51.383Z,963.40
2018-04-30T09:53:51.379Z,963.39
2018-04-30T09:54:51.375Z,963.39
2018-04-30T09:55:51.372Z,963.33
2018-04-30T09:56:51.371Z,963.29
2018-04-30T09:57:51.464Z,963.30
2018-04-30T09:58:51.356Z,963.27
2018-04-30T09:59:51.353Z,963.17
2018-04-30T10:00:51.348Z,963.28
2018-04-30T10:01:51.345Z,963.18
2018-04-30T10:02:51.341Z,963.25
2018-04-30T10:03:51.348Z,963.28
2018-04-30T10:04:51.333Z,963.23
2018-04-30T10:05:51.328Z,963.20
2018-04-30T10:06:51.323Z,963.22
2018-04-30T10:07:51.315Z,963.23
2018-04-30T10:08:51.313Z,963.20
2018-04-30T10:09:51.308Z,963.27
2018-04-30T10:10:51.307Z,963.26
2018-04-30T10:11:51.302Z,963.19
2018-04-30T10:12:51.298Z,963.17
2018-04-30T10:13:51.294Z,963.20
2018-04-30T10:14:51.289Z,963.22
2018-04-30T10:15:51.294Z,963.19
2018-04-30T10:16:51.283Z,963.17
2018-04-30T10:17:51.305Z,963.23
2018-04-30T10:18:51.275Z,963.19
2018-04-30T10:19:51.269Z,963.31
2018-04-30T10:20:51.271Z,963.24
2018-04-30T10:21:51.259Z,963.22
2018-04-30T10:22:51.258Z,963.24
2018-04-30T10:23:51.265Z,963.16
2018-04-30T10:24:51.247Z,963.09
2018-04-30T10:25:51.244Z,963.11
2018-04-30T10:26:51.242Z,963.19
2018-04-30T10:27:51.235Z,963.12
2018-04-30T10:28:51.237Z,963.11
2018-04-30T10:29:51.232Z,963.11
2018-04-30T10:30:51.224Z,963.09
2018-04-30T10:31:51.220Z,963.12
2018-04-30T10:32:51.216Z,963.14
2018-04-30T10:33:51.288Z,963.09
2018-04-30T10:34:51.210Z,963.03
2018-04-30T10:35:51.205Z,963.05
2018-04-30T10:36:51.207Z,963.03
2018-04-30T10:37:51.276Z,963.00
2018-04-30T10:38:51.193Z,962.98
2018-04-30T10:39:51.193Z,963.01
2018-04-30T10:40:51.194Z,963.03
2018-04-30T10:41:51.185Z,963.06
2018-04-30T10:42:51.183Z,963.01
2018-04-30T10:43:51.178Z,963.01
2018-04-30T10:44:51.169Z,963.01
2018-04-30T10:45:51.240Z,963.02
2018-04-30T10:46:51.163Z,963.11
2018-04-30T10:47:51.160Z,963.07
2018-04-30T10:48:51.159Z,963.04
2018-04-30T10:49:51.155Z,962.98
2018-04-30T10:50:51.151Z,963.01
2018-04-30T10:51:51.146Z,962.93
2018-04-30T10:52:51.140Z,962.94
2018-04-30T10:53:51.139Z,962.93
2018-04-30T10:54:51.135Z,962.97
2018-04-30T10:55:51.134Z,962.99
2018-04-30T10:56:51.128Z,962.98
2018-04-30T10:57:51.124Z,962.99
2018-04-30T10:58:51.120Z,963.02
2018-04-30T10:59:51.115Z,962.95
2018-04-30T11:00:51.114Z,963.03
2018-04-30T11:01:51.114Z,963.03
2018-04-30T11:02:51.106Z,962.98
2018-04-30T11:03:51.102Z,962.98
2018-04-30T11:04:51.095Z,962.97
2018-04-30T11:05:51.097Z,962.97
2018-04-30T11:06:51.091Z,962.94
2018-04-30T11:07:51.086Z,962.92
2018-04-30T11:08:51.082Z,962.92
2018-04-30T11:09:51.081Z,962.92
2018-04-30T11:10:51.072Z,962.90
2018-04-30T11:11:51.072Z,962.92
2018-04-30T11:12:51.066Z,962.88
2018-04-30T11:13:51.059Z,962.84
2018-04-30T11:14:51.130Z,962.88
2018-04-30T11:15:51.054Z,962.85
2018-04-30T11:16:51.050Z,962.82
2018-04-30T11:17:51.047Z,962.86
2018-04-30T11:18:51.042Z,962.88
2018-04-30T11:19:51.041Z,962.90
2018-04-30T11:20:51.035Z,962.98
2018-04-30T11:21:51.034Z,962.91
2018-04-30T11:22:51.029Z,962.81
2018-04-30T11:23:51.024Z,962.85
2018-04-30T11:24:51.022Z,962.83
2018-04-30T11:25:51.015Z,962.81
2018-04-30T11:26:51.011Z,962.84
2018-04-30T11:27:51.007Z,962.83
2018-04-30T11:28:51.006Z,962.77
2018-04-30T11:29:51.002Z,962.75
2018-04-30T11:30:50.998Z,962.74
2018-04-30T11:31:50.993Z,962.75
2018-04-30T11:32:50.993Z,962.72
2018-04-30T11:33:50.986Z,962.76
2018-04-30T11:34:50.983Z,962.76
2018-04-30T11:35:50.979Z,962.77
2018-04-30T11:36:50.978Z,962.76
2018-04-30T11:37:50.971Z,962.81
2018-04-30T11:38:50.975Z,962.89
2018-04-30T11:39:50.966Z,962.71
2018-04-30T11:40:50.964Z,962.70
2018-04-30T11:41:50.959Z,962.78
2018-04-30T11:42:50.954Z,962.73
2018-04-30T11:43:51.024Z,962.71
2018-04-30T11:44:50.951Z,962.75
2018-04-30T11:45:50.952Z,962.73
2018-04-30T11:46:50.944Z,962.75
2018-04-30T11:47:50.939Z,962.78
2018-04-30T11:48:50.936Z,962.88
2018-04-30T11:49:50.940Z,962.66
2018-04-30T11:50:50.928Z,962.75
2018-04-30T11:51:50.925Z,962.68
2018-04-30T11:52:50.923Z,962.63
2018-04-30T11:53:50.920Z,962.63
2018-04-30T11:54:50.916Z,962.67
2018-04-30T11:55:50.914Z,962.76
2018-04-30T11:56:50.912Z,962.81
2018-04-30T11:57:50.909Z,962.84
2018-04-30T11:58:50.905Z,962.86
2018-04-30T11:59:50.898Z,962.88
2018-04-30T12:00:50.894Z,962.92
2018-04-30T12:01:50.892Z,962.95
2018-04-30T12:02:50.891Z,962.86
2018-04-30T12:03:50.887Z,962.96
2018-04-30T12:04:50.888Z,962.95
2018-04-30T12:05:50.877Z,962.88
2018-04-30T12:06:50.878Z,963.02
2018-04-30T12:07:50.870Z,962.84
2018-04-30T12:08:50.866Z,962.91
2018-04-30T12:09:50.867Z,962.97
2018-04-30T12:10:50.861Z,962.93
2018-04-30T12:11:50.855Z,962.98
2018-04-30T12:12:50.862Z,962.99
2018-04-30T12:13:50.851Z,963.00
2018-04-30T12:14:50.854Z,962.99
2018-04-30T12:15:50.839Z,963.11
2018-04-30T12:16:50.837Z,963.05
2018-04-30T12:17:50.837Z,963.06
2018-04-30T12:18:50.828Z,963.13
2018-04-30T12:19:50.827Z,963.15
2018-04-30T12:20:50.822Z,963.02
2018-04-30T12:21:50.850Z,963.00
2018-04-30T12:22:50.813Z,962.98
2018-04-30T12:23:50.814Z,963.01
2018-04-30T12:24:50.809Z,963.04
2018-04-30T12:25:50.803Z,963.05
2018-04-30T12:26:50.797Z,963.01
2018-04-30T12:27:50.803Z,963.03
2018-04-30T12:28:50.794Z,963.11